sensor_id;sensor_type;location;lat;lon;timestamp;P1;durP1;ratioP1;P2;durP2;ratioP2
69573;SDS011;62840;52.366;5.980;2023-07-24T00:00:56;5.25;;;2.35;;
69573;SDS011;62840;52.366;5.980;2023-07-24T00:03:22;4.40;;;2.10;;
69573;SDS011;62840;52.366;5.980;2023-07-24T00:05:48;5.82;;;2.38;;
69573;SDS011;62840;52.366;5.980;2023-07-24T00:08:13;5.20;;;2.70;;
69573;SDS011;62840;52.366;5.980;2023-07-24T00:10:39;4.38;;;2.15;;
69573;SDS011;62840;52.366;5.980;2023-07-24T00:13:05;4.53;;;2.30;;
69573;SDS011;62840;52.366;5.980;2023-07-24T00:15:31;5.28;;;2.55;;
69573;SDS011;62840;52.366;5.980;2023-07-24T00:17:59;5.10;;;2.40;;
69573;SDS011;62840;52.366;5.980;2023-07-24T00:20:25;5.55;;;2.70;;
69573;SDS011;62840;52.366;5.980;2023-07-24T00:22:50;5.13;;;2.47;;
69573;SDS011;62840;52.366;5.980;2023-07-24T00:25:16;5.90;;;2.50;;
69573;SDS011;62840;52.366;5.980;2023-07-24T00:27:42;6.00;;;2.85;;
69573;SDS011;62840;52.366;5.980;2023-07-24T00:30:08;4.75;;;2.40;;
69573;SDS011;62840;52.366;5.980;2023-07-24T00:32:35;6.65;;;3.22;;
69573;SDS011;62840;52.366;5.980;2023-07-24T00:35:03;5.10;;;2.40;;
69573;SDS011;62840;52.366;5.980;2023-07-24T00:37:30;5.50;;;2.70;;
69573;SDS011;62840;52.366;5.980;2023-07-24T00:39:56;5.40;;;2.70;;
69573;SDS011;62840;52.366;5.980;2023-07-24T00:42:22;5.60;;;2.50;;
69573;SDS011;62840;52.366;5.980;2023-07-24T00:44:48;4.75;;;2.60;;
69573;SDS011;62840;52.366;5.980;2023-07-24T00:47:13;6.40;;;2.42;;
69573;SDS011;62840;52.366;5.980;2023-07-24T00:49:39;5.45;;;2.97;;
69573;SDS011;62840;52.366;5.980;2023-07-24T00:52:09;5.30;;;2.90;;
69573;SDS011;62840;52.366;5.980;2023-07-24T00:54:36;6.40;;;2.75;;
69573;SDS011;62840;52.366;5.980;2023-07-24T00:57:03;5.30;;;3.13;;
69573;SDS011;62840;52.366;5.980;2023-07-24T00:59:31;6.35;;;2.97;;
69573;SDS011;62840;52.366;5.980;2023-07-24T01:01:58;5.28;;;2.80;;
69573;SDS011;62840;52.366;5.980;2023-07-24T01:04:24;5.40;;;2.47;;
69573;SDS011;62840;52.366;5.980;2023-07-24T01:06:50;6.15;;;3.17;;
69573;SDS011;62840;52.366;5.980;2023-07-24T01:09:18;5.75;;;2.75;;
69573;SDS011;62840;52.366;5.980;2023-07-24T01:11:46;5.78;;;2.83;;
69573;SDS011;62840;52.366;5.980;2023-07-24T01:14:18;5.57;;;2.67;;
69573;SDS011;62840;52.366;5.980;2023-07-24T01:16:50;4.50;;;2.38;;
69573;SDS011;62840;52.366;5.980;2023-07-24T01:19:21;5.60;;;2.83;;
69573;SDS011;62840;52.366;5.980;2023-07-24T01:22:01;5.40;;;2.53;;
69573;SDS011;62840;52.366;5.980;2023-07-24T01:24:59;5.80;;;2.80;;
69573;SDS011;62840;52.366;5.980;2023-07-24T01:27:33;5.90;;;2.65;;
69573;SDS011;62840;52.366;5.980;2023-07-24T01:29:58;5.55;;;2.50;;
69573;SDS011;62840;52.366;5.980;2023-07-24T01:32:24;5.57;;;3.20;;
69573;SDS011;62840;52.366;5.980;2023-07-24T01:34:50;5.30;;;2.55;;
69573;SDS011;62840;52.366;5.980;2023-07-24T01:37:18;6.10;;;2.92;;
69573;SDS011;62840;52.366;5.980;2023-07-24T01:39:47;5.70;;;3.10;;
69573;SDS011;62840;52.366;5.980;2023-07-24T01:42:15;5.53;;;2.75;;
69573;SDS011;62840;52.366;5.980;2023-07-24T01:44:44;5.95;;;2.97;;
69573;SDS011;62840;52.366;5.980;2023-07-24T01:47:10;5.90;;;2.95;;
69573;SDS011;62840;52.366;5.980;2023-07-24T01:49:36;5.80;;;3.00;;
69573;SDS011;62840;52.366;5.980;2023-07-24T01:52:02;6.28;;;2.85;;
69573;SDS011;62840;52.366;5.980;2023-07-24T01:54:28;6.05;;;3.40;;
69573;SDS011;62840;52.366;5.980;2023-07-24T01:56:54;5.30;;;3.08;;
69573;SDS011;62840;52.366;5.980;2023-07-24T01:59:20;5.03;;;2.75;;
69573;SDS011;62840;52.366;5.980;2023-07-24T02:01:48;5.82;;;3.05;;
69573;SDS011;62840;52.366;5.980;2023-07-24T02:04:14;5.28;;;2.80;;
69573;SDS011;62840;52.366;5.980;2023-07-24T02:06:40;5.07;;;2.85;;
69573;SDS011;62840;52.366;5.980;2023-07-24T02:09:05;6.10;;;3.07;;
69573;SDS011;62840;52.366;5.980;2023-07-24T02:11:31;5.38;;;2.80;;
69573;SDS011;62840;52.366;5.980;2023-07-24T02:13:57;5.20;;;2.90;;
69573;SDS011;62840;52.366;5.980;2023-07-24T02:16:22;4.82;;;2.63;;
69573;SDS011;62840;52.366;5.980;2023-07-24T02:18:51;5.33;;;2.87;;
69573;SDS011;62840;52.366;5.980;2023-07-24T02:21:16;6.88;;;2.85;;
69573;SDS011;62840;52.366;5.980;2023-07-24T02:23:42;5.95;;;3.00;;
69573;SDS011;62840;52.366;5.980;2023-07-24T02:26:08;5.10;;;2.80;;
69573;SDS011;62840;52.366;5.980;2023-07-24T02:28:34;5.45;;;2.83;;
69573;SDS011;62840;52.366;5.980;2023-07-24T02:30:59;6.00;;;3.07;;
69573;SDS011;62840;52.366;5.980;2023-07-24T02:33:25;6.22;;;3.10;;
69573;SDS011;62840;52.366;5.980;2023-07-24T02:35:54;5.37;;;2.80;;
69573;SDS011;62840;52.366;5.980;2023-07-24T02:38:19;5.25;;;3.15;;
69573;SDS011;62840;52.366;5.980;2023-07-24T02:40:45;5.55;;;2.70;;
69573;SDS011;62840;52.366;5.980;2023-07-24T02:43:11;4.85;;;2.90;;
69573;SDS011;62840;52.366;5.980;2023-07-24T02:45:36;4.85;;;2.70;;
69573;SDS011;62840;52.366;5.980;2023-07-24T02:48:03;5.07;;;2.80;;
69573;SDS011;62840;52.366;5.980;2023-07-24T02:50:30;5.28;;;2.83;;
69573;SDS011;62840;52.366;5.980;2023-07-24T02:52:58;4.95;;;2.90;;
69573;SDS011;62840;52.366;5.980;2023-07-24T02:55:24;5.07;;;2.77;;
69573;SDS011;62840;52.366;5.980;2023-07-24T02:57:50;4.75;;;2.72;;
69573;SDS011;62840;52.366;5.980;2023-07-24T03:00:16;5.68;;;3.00;;
69573;SDS011;62840;52.366;5.980;2023-07-24T03:02:42;6.10;;;2.83;;
69573;SDS011;62840;52.366;5.980;2023-07-24T03:05:08;4.73;;;2.50;;
69573;SDS011;62840;52.366;5.980;2023-07-24T03:07:34;6.18;;;3.08;;
69573;SDS011;62840;52.366;5.980;2023-07-24T03:10:03;4.95;;;3.05;;
69573;SDS011;62840;52.366;5.980;2023-07-24T03:12:30;6.00;;;3.33;;
69573;SDS011;62840;52.366;5.980;2023-07-24T03:14:55;7.20;;;2.90;;
69573;SDS011;62840;52.366;5.980;2023-07-24T03:17:22;5.10;;;2.78;;
69573;SDS011;62840;52.366;5.980;2023-07-24T03:19:48;5.53;;;3.00;;
69573;SDS011;62840;52.366;5.980;2023-07-24T03:22:14;5.07;;;2.65;;
69573;SDS011;62840;52.366;5.980;2023-07-24T03:24:40;5.47;;;2.90;;
69573;SDS011;62840;52.366;5.980;2023-07-24T03:27:08;5.83;;;3.10;;
69573;SDS011;62840;52.366;5.980;2023-07-24T03:29:34;5.55;;;3.03;;
69573;SDS011;62840;52.366;5.980;2023-07-24T03:32:00;5.15;;;2.92;;
69573;SDS011;62840;52.366;5.980;2023-07-24T03:34:25;5.30;;;3.00;;
69573;SDS011;62840;52.366;5.980;2023-07-24T03:36:51;5.68;;;3.13;;
69573;SDS011;62840;52.366;5.980;2023-07-24T03:39:17;5.27;;;2.97;;
69573;SDS011;62840;52.366;5.980;2023-07-24T03:41:42;4.85;;;2.88;;
69573;SDS011;62840;52.366;5.980;2023-07-24T03:44:11;4.77;;;3.03;;
69573;SDS011;62840;52.366;5.980;2023-07-24T03:46:37;5.25;;;3.00;;
69573;SDS011;62840;52.366;5.980;2023-07-24T03:49:02;5.30;;;2.53;;
69573;SDS011;62840;52.366;5.980;2023-07-24T03:51:28;5.03;;;2.70;;
69573;SDS011;62840;52.366;5.980;2023-07-24T03:53:54;6.80;;;3.03;;
69573;SDS011;62840;52.366;5.980;2023-07-24T03:56:19;4.73;;;2.67;;
69573;SDS011;62840;52.366;5.980;2023-07-24T03:58:45;5.88;;;3.25;;
69573;SDS011;62840;52.366;5.980;2023-07-24T04:01:13;5.27;;;2.97;;
69573;SDS011;62840;52.366;5.980;2023-07-24T04:03:39;4.72;;;3.00;;
69573;SDS011;62840;52.366;5.980;2023-07-24T04:06:05;6.07;;;3.00;;
69573;SDS011;62840;52.366;5.980;2023-07-24T04:08:31;5.67;;;3.13;;
69573;SDS011;62840;52.366;5.980;2023-07-24T04:10:56;5.97;;;3.25;;
69573;SDS011;62840;52.366;5.980;2023-07-24T04:13:22;4.97;;;2.80;;
69573;SDS011;62840;52.366;5.980;2023-07-24T04:15:48;5.20;;;3.00;;
69573;SDS011;62840;52.366;5.980;2023-07-24T04:18:16;6.03;;;3.30;;
69573;SDS011;62840;52.366;5.980;2023-07-24T04:20:42;5.53;;;3.10;;
69573;SDS011;62840;52.366;5.980;2023-07-24T04:23:08;5.38;;;2.72;;
69573;SDS011;62840;52.366;5.980;2023-07-24T04:25:34;5.43;;;3.07;;
69573;SDS011;62840;52.366;5.980;2023-07-24T04:27:59;5.68;;;3.17;;
69573;SDS011;62840;52.366;5.980;2023-07-24T04:30:25;8.30;;;3.60;;
69573;SDS011;62840;52.366;5.980;2023-07-24T04:32:51;6.15;;;3.50;;
69573;SDS011;62840;52.366;5.980;2023-07-24T04:35:19;7.33;;;3.53;;
69573;SDS011;62840;52.366;5.980;2023-07-24T04:37:45;5.65;;;3.30;;
69573;SDS011;62840;52.366;5.980;2023-07-24T04:40:11;6.40;;;3.47;;
69573;SDS011;62840;52.366;5.980;2023-07-24T04:42:37;6.68;;;3.58;;
69573;SDS011;62840;52.366;5.980;2023-07-24T04:45:03;5.32;;;3.13;;
69573;SDS011;62840;52.366;5.980;2023-07-24T04:47:30;7.75;;;3.75;;
69573;SDS011;62840;52.366;5.980;2023-07-24T04:49:56;6.20;;;3.65;;
69573;SDS011;62840;52.366;5.980;2023-07-24T04:52:24;6.15;;;3.40;;
69573;SDS011;62840;52.366;5.980;2023-07-24T04:54:50;7.50;;;3.35;;
69573;SDS011;62840;52.366;5.980;2023-07-24T04:57:16;7.40;;;3.38;;
69573;SDS011;62840;52.366;5.980;2023-07-24T04:59:42;6.47;;;3.37;;
69573;SDS011;62840;52.366;5.980;2023-07-24T05:02:07;7.00;;;3.55;;
69573;SDS011;62840;52.366;5.980;2023-07-24T05:04:33;6.53;;;3.60;;
69573;SDS011;62840;52.366;5.980;2023-07-24T05:06:59;6.65;;;3.38;;
69573;SDS011;62840;52.366;5.980;2023-07-24T05:09:27;6.40;;;3.37;;
69573;SDS011;62840;52.366;5.980;2023-07-24T05:11:53;6.22;;;3.40;;
69573;SDS011;62840;52.366;5.980;2023-07-24T05:14:19;5.97;;;3.55;;
69573;SDS011;62840;52.366;5.980;2023-07-24T05:16:44;6.43;;;3.30;;
69573;SDS011;62840;52.366;5.980;2023-07-24T05:19:10;8.10;;;4.57;;
69573;SDS011;62840;52.366;5.980;2023-07-24T05:21:36;6.40;;;3.40;;
69573;SDS011;62840;52.366;5.980;2023-07-24T05:24:02;6.80;;;3.47;;
69573;SDS011;62840;52.366;5.980;2023-07-24T05:26:30;7.30;;;3.58;;
69573;SDS011;62840;52.366;5.980;2023-07-24T05:28:56;7.33;;;3.10;;
69573;SDS011;62840;52.366;5.980;2023-07-24T05:31:22;7.15;;;3.90;;
69573;SDS011;62840;52.366;5.980;2023-07-24T05:33:48;7.80;;;3.23;;
69573;SDS011;62840;52.366;5.980;2023-07-24T05:36:13;6.28;;;3.63;;
69573;SDS011;62840;52.366;5.980;2023-07-24T05:38:39;7.23;;;3.63;;
69573;SDS011;62840;52.366;5.980;2023-07-24T05:41:05;6.22;;;3.40;;
69573;SDS011;62840;52.366;5.980;2023-07-24T05:43:33;9.27;;;3.67;;
69573;SDS011;62840;52.366;5.980;2023-07-24T05:45:59;8.00;;;3.78;;
69573;SDS011;62840;52.366;5.980;2023-07-24T05:48:25;7.05;;;3.60;;
69573;SDS011;62840;52.366;5.980;2023-07-24T05:50:50;7.67;;;4.03;;
69573;SDS011;62840;52.366;5.980;2023-07-24T05:53:17;6.22;;;3.53;;
69573;SDS011;62840;52.366;5.980;2023-07-24T05:55:43;7.35;;;3.40;;
69573;SDS011;62840;52.366;5.980;2023-07-24T05:58:09;7.17;;;3.57;;
69573;SDS011;62840;52.366;5.980;2023-07-24T06:00:37;8.50;;;4.20;;
69573;SDS011;62840;52.366;5.980;2023-07-24T06:03:03;6.43;;;3.47;;
69573;SDS011;62840;52.366;5.980;2023-07-24T06:05:29;6.38;;;3.40;;
69573;SDS011;62840;52.366;5.980;2023-07-24T06:07:55;7.47;;;3.67;;
69573;SDS011;62840;52.366;5.980;2023-07-24T06:10:20;7.75;;;4.10;;
69573;SDS011;62840;52.366;5.980;2023-07-24T06:12:46;8.47;;;4.40;;
69573;SDS011;62840;52.366;5.980;2023-07-24T06:15:12;7.93;;;3.95;;
69573;SDS011;62840;52.366;5.980;2023-07-24T06:17:40;7.60;;;4.07;;
69573;SDS011;62840;52.366;5.980;2023-07-24T06:20:06;6.63;;;3.90;;
69573;SDS011;62840;52.366;5.980;2023-07-24T06:22:33;10.32;;;4.65;;
69573;SDS011;62840;52.366;5.980;2023-07-24T06:24:58;9.67;;;4.27;;
69573;SDS011;62840;52.366;5.980;2023-07-24T06:27:24;8.52;;;4.00;;
69573;SDS011;62840;52.366;5.980;2023-07-24T06:29:50;8.90;;;4.47;;
69573;SDS011;62840;52.366;5.980;2023-07-24T06:32:16;8.25;;;4.88;;
69573;SDS011;62840;52.366;5.980;2023-07-24T06:34:44;9.07;;;4.28;;
69573;SDS011;62840;52.366;5.980;2023-07-24T06:37:10;8.30;;;4.32;;
69573;SDS011;62840;52.366;5.980;2023-07-24T06:39:35;8.93;;;4.65;;
69573;SDS011;62840;52.366;5.980;2023-07-24T06:42:01;8.00;;;4.10;;
69573;SDS011;62840;52.366;5.980;2023-07-24T06:44:28;8.25;;;4.55;;
69573;SDS011;62840;52.366;5.980;2023-07-24T06:46:54;9.02;;;4.28;;
69573;SDS011;62840;52.366;5.980;2023-07-24T06:49:19;9.47;;;4.83;;
69573;SDS011;62840;52.366;5.980;2023-07-24T06:51:48;9.57;;;4.88;;
69573;SDS011;62840;52.366;5.980;2023-07-24T06:54:13;7.57;;;4.32;;
69573;SDS011;62840;52.366;5.980;2023-07-24T06:56:39;8.75;;;4.57;;
69573;SDS011;62840;52.366;5.980;2023-07-24T06:59:05;11.20;;;5.20;;
69573;SDS011;62840;52.366;5.980;2023-07-24T07:01:31;9.30;;;4.77;;
69573;SDS011;62840;52.366;5.980;2023-07-24T07:03:56;10.27;;;5.00;;
69573;SDS011;62840;52.366;5.980;2023-07-24T07:06:22;12.00;;;5.13;;
69573;SDS011;62840;52.366;5.980;2023-07-24T07:08:50;8.65;;;4.50;;
69573;SDS011;62840;52.366;5.980;2023-07-24T07:11:16;8.50;;;4.57;;
69573;SDS011;62840;52.366;5.980;2023-07-24T07:13:42;8.13;;;4.50;;
69573;SDS011;62840;52.366;5.980;2023-07-24T07:16:08;9.43;;;4.57;;
69573;SDS011;62840;52.366;5.980;2023-07-24T07:18:33;9.52;;;4.07;;
69573;SDS011;62840;52.366;5.980;2023-07-24T07:20:59;7.83;;;4.07;;
69573;SDS011;62840;52.366;5.980;2023-07-24T07:23:25;9.40;;;4.47;;
69573;SDS011;62840;52.366;5.980;2023-07-24T07:25:53;8.90;;;4.07;;
69573;SDS011;62840;52.366;5.980;2023-07-24T07:28:19;9.40;;;4.75;;
69573;SDS011;62840;52.366;5.980;2023-07-24T07:30:45;9.90;;;4.63;;
69573;SDS011;62840;52.366;5.980;2023-07-24T07:33:11;9.03;;;4.30;;
69573;SDS011;62840;52.366;5.980;2023-07-24T07:35:36;7.38;;;4.43;;
69573;SDS011;62840;52.366;5.980;2023-07-24T07:38:02;8.57;;;4.57;;
69573;SDS011;62840;52.366;5.980;2023-07-24T07:40:29;7.78;;;4.45;;
69573;SDS011;62840;52.366;5.980;2023-07-24T07:42:57;10.70;;;4.90;;
69573;SDS011;62840;52.366;5.980;2023-07-24T07:45:23;10.20;;;4.82;;
69573;SDS011;62840;52.366;5.980;2023-07-24T07:47:49;7.25;;;4.50;;
69573;SDS011;62840;52.366;5.980;2023-07-24T07:50:15;9.38;;;4.20;;
69573;SDS011;62840;52.366;5.980;2023-07-24T07:52:41;8.93;;;4.00;;
69573;SDS011;62840;52.366;5.980;2023-07-24T07:55:07;7.10;;;4.10;;
69573;SDS011;62840;52.366;5.980;2023-07-24T07:57:34;8.95;;;4.50;;
69573;SDS011;62840;52.366;5.980;2023-07-24T08:00:02;7.93;;;4.77;;
69573;SDS011;62840;52.366;5.980;2023-07-24T08:02:30;8.98;;;4.63;;
69573;SDS011;62840;52.366;5.980;2023-07-24T08:04:56;8.00;;;5.13;;
69573;SDS011;62840;52.366;5.980;2023-07-24T08:07:21;8.13;;;5.13;;
69573;SDS011;62840;52.366;5.980;2023-07-24T08:09:47;9.30;;;5.72;;
69573;SDS011;62840;52.366;5.980;2023-07-24T08:12:13;9.43;;;5.30;;
69573;SDS011;62840;52.366;5.980;2023-07-24T08:14:38;9.45;;;4.68;;
69573;SDS011;62840;52.366;5.980;2023-07-24T08:17:07;7.70;;;4.47;;
69573;SDS011;62840;52.366;5.980;2023-07-24T08:19:32;8.73;;;4.50;;
69573;SDS011;62840;52.366;5.980;2023-07-24T08:21:58;8.32;;;4.45;;
69573;SDS011;62840;52.366;5.980;2023-07-24T08:24:24;6.90;;;4.50;;
69573;SDS011;62840;52.366;5.980;2023-07-24T08:26:50;7.00;;;4.13;;
69573;SDS011;62840;52.366;5.980;2023-07-24T08:29:16;9.47;;;3.40;;
69573;SDS011;62840;52.366;5.980;2023-07-24T08:31:41;8.73;;;3.58;;
69573;SDS011;62840;52.366;5.980;2023-07-24T08:34:10;7.07;;;3.80;;
69573;SDS011;62840;52.366;5.980;2023-07-24T08:36:35;6.82;;;3.28;;
69573;SDS011;62840;52.366;5.980;2023-07-24T08:39:01;6.13;;;3.20;;
69573;SDS011;62840;52.366;5.980;2023-07-24T08:41:27;7.07;;;3.43;;
69573;SDS011;62840;52.366;5.980;2023-07-24T08:43:53;7.05;;;3.20;;
69573;SDS011;62840;52.366;5.980;2023-07-24T08:46:19;6.05;;;3.05;;
69573;SDS011;62840;52.366;5.980;2023-07-24T08:48:47;7.25;;;3.30;;
69573;SDS011;62840;52.366;5.980;2023-07-24T08:51:15;7.43;;;3.60;;
69573;SDS011;62840;52.366;5.980;2023-07-24T08:53:41;5.40;;;3.20;;
69573;SDS011;62840;52.366;5.980;2023-07-24T08:56:09;10.90;;;3.40;;
69573;SDS011;62840;52.366;5.980;2023-07-24T08:58:36;6.43;;;3.22;;
69573;SDS011;62840;52.366;5.980;2023-07-24T09:01:03;5.95;;;3.20;;
69573;SDS011;62840;52.366;5.980;2023-07-24T09:03:30;7.28;;;3.38;;
69573;SDS011;62840;52.366;5.980;2023-07-24T09:05:56;6.30;;;3.20;;
69573;SDS011;62840;52.366;5.980;2023-07-24T09:08:31;6.63;;;3.40;;
69573;SDS011;62840;52.366;5.980;2023-07-24T09:10:58;7.65;;;3.67;;
69573;SDS011;62840;52.366;5.980;2023-07-24T09:13:25;8.85;;;3.83;;
69573;SDS011;62840;52.366;5.980;2023-07-24T09:15:51;9.38;;;3.70;;
69573;SDS011;62840;52.366;5.980;2023-07-24T09:18:17;7.00;;;3.70;;
69573;SDS011;62840;52.366;5.980;2023-07-24T09:20:43;8.20;;;3.83;;
69573;SDS011;62840;52.366;5.980;2023-07-24T09:23:10;7.82;;;3.92;;
69573;SDS011;62840;52.366;5.980;2023-07-24T09:25:41;7.15;;;3.97;;
69573;SDS011;62840;52.366;5.980;2023-07-24T09:28:09;7.75;;;3.60;;
69573;SDS011;62840;52.366;5.980;2023-07-24T09:30:36;7.93;;;3.80;;
69573;SDS011;62840;52.366;5.980;2023-07-24T09:33:03;7.03;;;3.90;;
69573;SDS011;62840;52.366;5.980;2023-07-24T09:35:29;6.18;;;3.63;;
69573;SDS011;62840;52.366;5.980;2023-07-24T09:38:01;6.77;;;3.70;;
69573;SDS011;62840;52.366;5.980;2023-07-24T09:40:36;6.00;;;3.63;;
69573;SDS011;62840;52.366;5.980;2023-07-24T09:43:16;7.43;;;3.95;;
69573;SDS011;62840;52.366;5.980;2023-07-24T09:45:43;7.63;;;4.20;;
69573;SDS011;62840;52.366;5.980;2023-07-24T09:48:10;7.10;;;4.00;;
69573;SDS011;62840;52.366;5.980;2023-07-24T09:50:38;6.20;;;3.55;;
69573;SDS011;62840;52.366;5.980;2023-07-24T09:53:06;9.05;;;4.40;;
69573;SDS011;62840;52.366;5.980;2023-07-24T09:55:42;6.80;;;3.60;;
69573;SDS011;62840;52.366;5.980;2023-07-24T09:58:14;7.63;;;3.72;;
69573;SDS011;62840;52.366;5.980;2023-07-24T10:00:43;7.28;;;3.75;;
69573;SDS011;62840;52.366;5.980;2023-07-24T10:03:11;8.88;;;3.85;;
69573;SDS011;62840;52.366;5.980;2023-07-24T10:05:39;7.70;;;3.90;;
69573;SDS011;62840;52.366;5.980;2023-07-24T10:08:05;10.52;;;4.20;;
69573;SDS011;62840;52.366;5.980;2023-07-24T10:10:31;5.80;;;3.50;;
69573;SDS011;62840;52.366;5.980;2023-07-24T10:13:00;7.28;;;4.03;;
69573;SDS011;62840;52.366;5.980;2023-07-24T10:15:27;7.53;;;4.18;;
69573;SDS011;62840;52.366;5.980;2023-07-24T10:18:00;7.43;;;3.63;;
69573;SDS011;62840;52.366;5.980;2023-07-24T10:20:32;7.97;;;3.60;;
69573;SDS011;62840;52.366;5.980;2023-07-24T10:23:00;7.82;;;3.53;;
69573;SDS011;62840;52.366;5.980;2023-07-24T10:25:28;7.68;;;3.70;;
69573;SDS011;62840;52.366;5.980;2023-07-24T10:27:55;6.88;;;3.50;;
69573;SDS011;62840;52.366;5.980;2023-07-24T10:30:29;7.30;;;3.50;;
69573;SDS011;62840;52.366;5.980;2023-07-24T10:33:02;6.80;;;3.17;;
69573;SDS011;62840;52.366;5.980;2023-07-24T10:35:36;7.75;;;3.67;;
69573;SDS011;62840;52.366;5.980;2023-07-24T10:38:03;7.18;;;4.40;;
69573;SDS011;62840;52.366;5.980;2023-07-24T10:40:29;6.40;;;3.60;;
69573;SDS011;62840;52.366;5.980;2023-07-24T10:43:04;7.40;;;4.20;;
69573;SDS011;62840;52.366;5.980;2023-07-24T10:45:41;7.85;;;4.07;;
69573;SDS011;62840;52.366;5.980;2023-07-24T10:48:14;7.88;;;3.95;;
69573;SDS011;62840;52.366;5.980;2023-07-24T10:50:41;9.02;;;3.78;;
69573;SDS011;62840;52.366;5.980;2023-07-24T10:53:09;6.20;;;3.72;;
69573;SDS011;62840;52.366;5.980;2023-07-24T10:55:35;7.63;;;3.70;;
69573;SDS011;62840;52.366;5.980;2023-07-24T10:58:03;6.25;;;3.58;;
69573;SDS011;62840;52.366;5.980;2023-07-24T11:00:31;8.82;;;3.83;;
69573;SDS011;62840;52.366;5.980;2023-07-24T11:02:57;6.60;;;3.65;;
69573;SDS011;62840;52.366;5.980;2023-07-24T11:05:23;7.03;;;4.00;;
69573;SDS011;62840;52.366;5.980;2023-07-24T11:07:49;7.90;;;4.20;;
69573;SDS011;62840;52.366;5.980;2023-07-24T11:10:15;7.72;;;4.53;;
69573;SDS011;62840;52.366;5.980;2023-07-24T11:12:41;8.55;;;4.13;;
69573;SDS011;62840;52.366;5.980;2023-07-24T11:15:10;6.90;;;4.20;;
69573;SDS011;62840;52.366;5.980;2023-07-24T11:17:37;7.82;;;4.40;;
69573;SDS011;62840;52.366;5.980;2023-07-24T11:20:06;7.10;;;4.20;;
69573;SDS011;62840;52.366;5.980;2023-07-24T11:22:34;6.97;;;4.03;;
69573;SDS011;62840;52.366;5.980;2023-07-24T11:25:00;7.93;;;4.20;;
69573;SDS011;62840;52.366;5.980;2023-07-24T11:27:26;8.35;;;4.22;;
69573;SDS011;62840;52.366;5.980;2023-07-24T11:29:52;7.00;;;4.30;;
69573;SDS011;62840;52.366;5.980;2023-07-24T11:32:21;7.32;;;4.45;;
69573;SDS011;62840;52.366;5.980;2023-07-24T11:34:48;6.97;;;3.88;;
69573;SDS011;62840;52.366;5.980;2023-07-24T11:37:15;6.88;;;4.18;;
69573;SDS011;62840;52.366;5.980;2023-07-24T11:39:42;9.73;;;4.37;;
69573;SDS011;62840;52.366;5.980;2023-07-24T11:42:08;6.22;;;3.80;;
69573;SDS011;62840;52.366;5.980;2023-07-24T11:44:34;9.95;;;4.50;;
69573;SDS011;62840;52.366;5.980;2023-07-24T11:47:00;8.20;;;4.10;;
69573;SDS011;62840;52.366;5.980;2023-07-24T11:49:30;8.07;;;4.10;;
69573;SDS011;62840;52.366;5.980;2023-07-24T11:52:00;7.95;;;3.90;;
69573;SDS011;62840;52.366;5.980;2023-07-24T11:54:28;8.40;;;4.00;;
69573;SDS011;62840;52.366;5.980;2023-07-24T11:56:54;6.57;;;4.33;;
69573;SDS011;62840;52.366;5.980;2023-07-24T11:59:19;7.55;;;3.85;;
69573;SDS011;62840;52.366;5.980;2023-07-24T12:01:45;6.87;;;3.87;;
69573;SDS011;62840;52.366;5.980;2023-07-24T12:04:11;6.80;;;4.07;;
69573;SDS011;62840;52.366;5.980;2023-07-24T12:06:41;7.15;;;4.07;;
69573;SDS011;62840;52.366;5.980;2023-07-24T12:09:07;5.70;;;3.70;;
69573;SDS011;62840;52.366;5.980;2023-07-24T12:11:33;8.53;;;3.93;;
69573;SDS011;62840;52.366;5.980;2023-07-24T12:14:05;7.57;;;3.95;;
69573;SDS011;62840;52.366;5.980;2023-07-24T12:16:33;6.65;;;3.75;;
69573;SDS011;62840;52.366;5.980;2023-07-24T12:18:59;9.18;;;4.20;;
69573;SDS011;62840;52.366;5.980;2023-07-24T12:21:25;5.90;;;4.07;;
69573;SDS011;62840;52.366;5.980;2023-07-24T12:23:53;6.85;;;3.58;;
69573;SDS011;62840;52.366;5.980;2023-07-24T12:26:19;6.47;;;4.05;;
69573;SDS011;62840;52.366;5.980;2023-07-24T12:28:45;7.73;;;4.37;;
69573;SDS011;62840;52.366;5.980;2023-07-24T12:31:11;7.72;;;3.58;;
69573;SDS011;62840;52.366;5.980;2023-07-24T12:33:36;6.50;;;3.77;;
69573;SDS011;62840;52.366;5.980;2023-07-24T12:36:02;7.80;;;3.55;;
69573;SDS011;62840;52.366;5.980;2023-07-24T12:38:29;7.43;;;4.20;;
69573;SDS011;62840;52.366;5.980;2023-07-24T12:40:57;7.43;;;4.20;;
69573;SDS011;62840;52.366;5.980;2023-07-24T12:43:23;7.85;;;3.97;;
69573;SDS011;62840;52.366;5.980;2023-07-24T12:45:49;6.13;;;3.87;;
69573;SDS011;62840;52.366;5.980;2023-07-24T12:48:14;7.13;;;4.40;;
69573;SDS011;62840;52.366;5.980;2023-07-24T12:50:40;7.73;;;4.50;;
69573;SDS011;62840;52.366;5.980;2023-07-24T12:53:06;10.25;;;4.72;;
69573;SDS011;62840;52.366;5.980;2023-07-24T12:55:32;8.90;;;4.40;;
69573;SDS011;62840;52.366;5.980;2023-07-24T12:58:00;7.70;;;4.57;;
69573;SDS011;62840;52.366;5.980;2023-07-24T13:00:26;7.50;;;4.80;;
69573;SDS011;62840;52.366;5.980;2023-07-24T13:02:52;9.80;;;5.10;;
69573;SDS011;62840;52.366;5.980;2023-07-24T13:05:17;9.18;;;5.75;;
69573;SDS011;62840;52.366;5.980;2023-07-24T13:07:43;8.87;;;5.30;;
69573;SDS011;62840;52.366;5.980;2023-07-24T13:10:09;7.57;;;5.00;;
69573;SDS011;62840;52.366;5.980;2023-07-24T13:12:35;7.67;;;4.90;;
69573;SDS011;62840;52.366;5.980;2023-07-24T13:15:03;6.63;;;4.28;;
69573;SDS011;62840;52.366;5.980;2023-07-24T13:17:31;7.13;;;4.30;;
69573;SDS011;62840;52.366;5.980;2023-07-24T13:19:57;6.90;;;4.13;;
69573;SDS011;62840;52.366;5.980;2023-07-24T13:22:22;6.55;;;4.15;;
69573;SDS011;62840;52.366;5.980;2023-07-24T13:24:48;6.70;;;4.40;;
69573;SDS011;62840;52.366;5.980;2023-07-24T13:27:14;7.13;;;4.43;;
69573;SDS011;62840;52.366;5.980;2023-07-24T13:29:39;8.83;;;4.63;;
69573;SDS011;62840;52.366;5.980;2023-07-24T13:32:08;9.27;;;5.00;;
69573;SDS011;62840;52.366;5.980;2023-07-24T13:34:34;9.43;;;5.18;;
69573;SDS011;62840;52.366;5.980;2023-07-24T13:36:59;13.43;;;5.73;;
69573;SDS011;62840;52.366;5.980;2023-07-24T13:39:25;12.30;;;5.72;;
69573;SDS011;62840;52.366;5.980;2023-07-24T13:41:51;14.03;;;5.70;;
69573;SDS011;62840;52.366;5.980;2023-07-24T13:44:16;10.57;;;5.25;;
69573;SDS011;62840;52.366;5.980;2023-07-24T13:46:42;8.73;;;4.80;;
69573;SDS011;62840;52.366;5.980;2023-07-24T13:49:10;7.78;;;4.32;;
69573;SDS011;62840;52.366;5.980;2023-07-24T13:51:36;7.57;;;3.80;;
69573;SDS011;62840;52.366;5.980;2023-07-24T13:54:02;8.13;;;3.92;;
69573;SDS011;62840;52.366;5.980;2023-07-24T13:56:28;7.22;;;3.78;;
69573;SDS011;62840;52.366;5.980;2023-07-24T13:58:54;6.27;;;3.10;;
69573;SDS011;62840;52.366;5.980;2023-07-24T14:01:19;6.55;;;3.72;;
69573;SDS011;62840;52.366;5.980;2023-07-24T14:03:45;6.67;;;3.87;;
69573;SDS011;62840;52.366;5.980;2023-07-24T14:06:14;9.55;;;4.10;;
69573;SDS011;62840;52.366;5.980;2023-07-24T14:08:40;8.80;;;4.20;;
69573;SDS011;62840;52.366;5.980;2023-07-24T14:11:05;8.33;;;4.20;;
69573;SDS011;62840;52.366;5.980;2023-07-24T14:13:31;8.15;;;5.10;;
69573;SDS011;62840;52.366;5.980;2023-07-24T14:15:57;7.33;;;4.10;;
69573;SDS011;62840;52.366;5.980;2023-07-24T14:18:22;8.50;;;4.75;;
69573;SDS011;62840;52.366;5.980;2023-07-24T14:20:48;7.57;;;4.77;;
69573;SDS011;62840;52.366;5.980;2023-07-24T14:23:16;7.70;;;4.50;;
69573;SDS011;62840;52.366;5.980;2023-07-24T14:25:42;7.10;;;3.83;;
69573;SDS011;62840;52.366;5.980;2023-07-24T14:28:08;7.80;;;3.57;;
69573;SDS011;62840;52.366;5.980;2023-07-24T14:30:34;8.38;;;4.00;;
69573;SDS011;62840;52.366;5.980;2023-07-24T14:32:59;6.63;;;3.70;;
69573;SDS011;62840;52.366;5.980;2023-07-24T14:35:25;7.47;;;3.63;;
69573;SDS011;62840;52.366;5.980;2023-07-24T14:37:51;5.77;;;3.20;;
69573;SDS011;62840;52.366;5.980;2023-07-24T14:40:19;5.47;;;2.95;;
69573;SDS011;62840;52.366;5.980;2023-07-24T14:42:45;5.53;;;3.00;;
69573;SDS011;62840;52.366;5.980;2023-07-24T14:45:10;6.53;;;3.00;;